createdAt,value
2024-01-16T00:03:30.886Z,94825.97
2024-01-16T00:08:32.510Z,94810.56
2024-01-16T00:13:34.477Z,94822.44
2024-01-16T00:18:36.189Z,94812.03
2024-01-16T00:23:37.843Z,94831.94
2024-01-16T00:28:44.115Z,94821.66
2024-01-16T00:33:45.759Z,94837.50
2024-01-16T00:38:48.204Z,94855.22
2024-01-16T00:43:50.156Z,94859.34
2024-01-16T00:48:51.943Z,94858.66
2024-01-16T00:53:53.736Z,94859.03
2024-01-16T00:58:55.454Z,94874.69
2024-01-16T01:03:57.285Z,94885.84
2024-01-16T01:09:00.405Z,94893.69
2024-01-16T01:14:02.718Z,94895.25
2024-01-16T01:19:04.496Z,94914.38
2024-01-16T01:24:06.159Z,94912.56
2024-01-16T01:29:08.015Z,94926.19
2024-01-16T01:34:09.749Z,94936.47
2024-01-16T01:39:12.256Z,94943.22
2024-01-16T01:44:17.405Z,94945.00
2024-01-16T01:49:19.439Z,94960.44
2024-01-16T01:54:21.897Z,94965.56
2024-01-16T01:59:24.623Z,94956.72
2024-01-16T02:04:27.945Z,94957.28
2024-01-16T02:09:30.199Z,94962.66
2024-01-16T02:14:31.892Z,94970.56
2024-01-16T02:19:33.574Z,94960.63
2024-01-16T02:24:35.340Z,94969.13
2024-01-16T02:29:42.189Z,94974.03
2024-01-16T02:34:44.694Z,94956.72
2024-01-16T02:39:46.361Z,94967.91
2024-01-16T02:44:47.930Z,94963.53
2024-01-16T02:49:49.545Z,94971.59
2024-01-16T02:54:51.155Z,94967.25
2024-01-16T02:59:52.804Z,94974.19
2024-01-16T03:04:54.424Z,94981.53
2024-01-16T03:09:56.037Z,94986.59
2024-01-16T03:14:57.753Z,94987.03
2024-01-16T03:19:59.648Z,95005.81
2024-01-16T03:25:03.731Z,95006.00
2024-01-16T03:30:06.193Z,95007.22
2024-01-16T03:35:08.757Z,95020.41
2024-01-16T03:40:12.414Z,95029.34
2024-01-16T03:45:16.807Z,95034.03
2024-01-16T03:50:19.176Z,95038.16
2024-01-16T03:55:20.922Z,95053.19
2024-01-16T04:00:22.766Z,95048.91
2024-01-16T04:05:24.801Z,95052.81
2024-01-16T04:10:26.518Z,95055.25
2024-01-16T04:15:28.195Z,95058.72
2024-01-16T04:20:29.835Z,95048.09
2024-01-16T04:25:31.533Z,95050.03
2024-01-16T04:30:33.205Z,95052.25
2024-01-16T04:35:35.083Z,95055.72
2024-01-16T04:40:37.610Z,95040.38
2024-01-16T04:45:39.203Z,95042.97
2024-01-16T04:50:40.883Z,95045.34
2024-01-16T04:55:42.557Z,95026.00
2024-01-16T05:00:44.156Z,95032.81
2024-01-16T05:05:45.764Z,95053.06
2024-01-16T05:10:47.339Z,95059.34
2024-01-16T05:15:48.900Z,95060.47
2024-01-16T05:20:50.459Z,95055.19
2024-01-16T05:25:52.131Z,95071.31
2024-01-16T05:30:53.740Z,95072.44
2024-01-16T05:35:55.414Z,95080.13
2024-01-16T05:40:57.037Z,95086.19
2024-01-16T05:45:58.689Z,95087.53
2024-01-16T05:51:01.736Z,95083.16
2024-01-16T05:56:03.604Z,95091.53
2024-01-16T06:01:06.091Z,95091.91
2024-01-16T06:06:08.525Z,95100.28
2024-01-16T06:11:14.203Z,95105.53
2024-01-16T06:16:16.284Z,95098.03
2024-01-16T06:21:20.465Z,95111.66
2024-01-16T06:26:23.328Z,95111.09
2024-01-16T06:31:27.284Z,95113.44
2024-01-16T06:36:28.938Z,95113.09
2024-01-16T06:41:30.621Z,95116.56
2024-01-16T06:46:32.209Z,95110.75
2024-01-16T06:51:33.913Z,95112.19
2024-01-16T06:56:35.538Z,95120.69
2024-01-16T07:01:37.071Z,95125.75
2024-01-16T07:06:38.675Z,95121.16
2024-01-16T07:11:43.716Z,95121.59
2024-01-16T07:16:45.415Z,95120.47
2024-01-16T07:21:47.264Z,95108.41
2024-01-16T07:26:48.989Z,95105.84
2024-01-16T07:31:50.665Z,95107.84
2024-01-16T07:36:52.533Z,95104.75
2024-01-16T07:41:54.096Z,95102.06
2024-01-16T07:46:55.864Z,95102.63
2024-01-16T07:51:57.660Z,95108.00
2024-01-16T07:57:00.580Z,95116.13
2024-01-16T08:02:02.262Z,95104.28
2024-01-16T08:07:04.310Z,95118.50
2024-01-16T08:12:07.024Z,95124.41
2024-01-16T08:17:09.337Z,95121.63
2024-01-16T08:22:18.105Z,95136.28
2024-01-16T08:27:22.237Z,95130.00
2024-01-16T08:32:24.072Z,95120.41
2024-01-16T08:37:26.663Z,95130.31
2024-01-16T08:42:28.261Z,95130.66
2024-01-16T08:47:29.958Z,95137.06
2024-01-16T08:52:31.899Z,95128.44
2024-01-16T08:57:33.455Z,95130.56
2024-01-16T09:02:35.086Z,95133.34
2024-01-16T09:07:36.885Z,95131.47
2024-01-16T09:12:38.456Z,95122.84
2024-01-16T09:17:40.319Z,95126.53
2024-01-16T09:22:42.101Z,95122.28
2024-01-16T09:27:43.712Z,95123.84
2024-01-16T09:32:46.661Z,95119.38
2024-01-16T09:37:48.773Z,95119.94
2024-01-16T09:42:52.117Z,95121.06
2024-01-16T09:47:54.508Z,95123.06
2024-01-16T09:52:59.165Z,95121.50
2024-01-16T09:58:04.730Z,95124.28
2024-01-16T10:03:06.983Z,95102.69
2024-01-16T10:08:09.140Z,95110.72
2024-01-16T10:13:10.903Z,95104.44
2024-01-16T10:18:31.125Z,95099.72
2024-01-16T10:23:38.076Z,95100.25
2024-01-16T10:28:41.343Z,95106.28
2024-01-16T10:33:43.303Z,95108.53
2024-01-16T10:38:46.756Z,95118.81
2024-01-16T10:43:48.707Z,95112.88
2024-01-16T10:49:06.515Z,95125.88
2024-01-16T10:54:15.204Z,95133.16
2024-01-16T10:59:22.199Z,95128.84
2024-01-16T11:04:25.099Z,95121.75
2024-01-16T11:09:27.277Z,95129.13
2024-01-16T11:14:31.798Z,95115.34
2024-01-16T11:19:48.293Z,95122.66
2024-01-16T11:25:17.098Z,95113.31
2024-01-16T11:30:31.617Z,95114.25
2024-01-16T11:35:38.209Z,95109.84
2024-01-16T11:40:39.837Z,95094.66
2024-01-16T11:45:41.335Z,95092.50
2024-01-16T11:50:44.226Z,95088.41
2024-01-16T11:56:11.101Z,95079.28
2024-01-16T12:01:14.138Z,95067.53
2024-01-16T12:06:17.813Z,95051.72
2024-01-16T12:11:22.808Z,95057.34
2024-01-16T12:16:28.373Z,95057.84
2024-01-16T12:21:30.202Z,95057.75
2024-01-16T12:26:35.529Z,95062.09
2024-01-16T12:31:37.122Z,95055.63
2024-01-16T12:36:39.271Z,95053.47
2024-01-16T12:41:47.935Z,95030.91
2024-01-16T12:47:00.126Z,95024.09
2024-01-16T12:52:22.914Z,95006.09
2024-01-16T12:57:25.555Z,95001.56
2024-01-16T13:02:27.265Z,94989.69
2024-01-16T13:07:32.029Z,94985.16
2024-01-16T13:12:34.867Z,94976.44
2024-01-16T13:17:37.805Z,94981.84
2024-01-16T13:22:45.146Z,94974.44
2024-01-16T13:27:49.891Z,94970.53
2024-01-16T13:32:52.146Z,94965.53
2024-01-16T13:37:54.603Z,94969.41
2024-01-16T13:42:56.618Z,94973.75
2024-01-16T13:47:58.780Z,94961.03
2024-01-16T13:53:01.729Z,94958.34
2024-01-16T13:58:04.081Z,94968.34
2024-01-16T14:03:07.891Z,94963.31
2024-01-16T14:08:13.180Z,94960.56
2024-01-16T14:13:14.886Z,94958.56
2024-01-16T14:18:16.845Z,94955.09
2024-01-16T14:23:18.640Z,94953.09
2024-01-16T14:33:31.602Z,94939.97
2024-01-16T14:38:33.975Z,94957.25
2024-01-16T14:43:36.335Z,94952.16
2024-01-16T14:48:47.514Z,94947.03
2024-01-16T14:53:50.023Z,94952.34
2024-01-16T14:58:52.345Z,94952.63
2024-01-16T15:03:55.599Z,94942.16
2024-01-16T15:08:59.105Z,94950.16
2024-01-16T15:14:01.895Z,94944.69
2024-01-16T15:19:04.935Z,94936.13
2024-01-16T15:24:07.392Z,94929.47
2024-01-16T15:29:11.585Z,94926.69
2024-01-16T15:34:16.784Z,94928.91
2024-01-16T15:39:22.879Z,94924.56
2024-01-16T15:44:25.297Z,94921.44
2024-01-16T15:49:28.183Z,94931.81
2024-01-16T15:54:31.800Z,94925.91
2024-01-16T15:59:33.719Z,94939.31
2024-01-16T16:04:36.951Z,94961.94
2024-01-16T16:09:39.944Z,94946.16
2024-01-16T16:14:42.466Z,94950.34
2024-01-16T16:19:47.029Z,94946.44
2024-01-16T16:24:49.073Z,94951.41
2024-01-16T16:29:50.889Z,94949.75
2024-01-16T16:34:52.881Z,94943.53
2024-01-16T16:39:55.471Z,94950.41
2024-01-16T16:44:57.422Z,94953.09
2024-01-16T16:50:02.768Z,94946.06
2024-01-16T16:55:05.613Z,94954.84
2024-01-16T17:00:08.721Z,94950.50
2024-01-16T17:05:10.685Z,94955.78
2024-01-16T17:10:12.781Z,94967.63
2024-01-16T17:15:14.974Z,94969.06
2024-01-16T17:20:16.702Z,94969.78
2024-01-16T17:25:18.269Z,94970.91
2024-01-16T17:30:20.811Z,94960.94
2024-01-16T17:35:24.896Z,94963.19
2024-01-16T17:40:26.463Z,94981.22
2024-01-16T17:45:28.065Z,94967.00
2024-01-16T17:50:29.746Z,94970.03
2024-01-16T17:55:34.401Z,94968.50
2024-01-16T18:00:36.336Z,94967.72
2024-01-16T18:05:38.110Z,94968.38
2024-01-16T18:10:40.727Z,94951.75
2024-01-16T18:15:42.855Z,94946.28
2024-01-16T18:20:45.284Z,94946.56
2024-01-16T18:25:49.086Z,94950.72
2024-01-16T18:30:52.823Z,94940.22
2024-01-16T18:35:59.269Z,94938.22
2024-01-16T18:41:01.900Z,94943.88
2024-01-16T18:46:04.826Z,94942.66
2024-01-16T18:51:06.831Z,94934.81
2024-01-16T18:56:09.109Z,94943.50
2024-01-16T19:01:12.524Z,94935.25
2024-01-16T19:06:14.484Z,94922.09
2024-01-16T19:11:17.118Z,94914.28
2024-01-16T19:16:19.567Z,94912.88
2024-01-16T19:21:21.605Z,94909.22
2024-01-16T19:26:23.323Z,94894.06
2024-01-16T19:31:25.280Z,94893.88
2024-01-16T19:36:26.960Z,94894.81
2024-01-16T19:41:32.763Z,94888.81
2024-01-16T19:46:34.390Z,94881.38
2024-01-16T19:51:39.837Z,94872.69
